Costa Sul — CUQA8 — position and weather

sailwx.info

Track history (hours):
 
Tides and Currents Weather Stations Pressure Air Temp Water Temp Dewpoint Dewpoint Depression Visibility Wind Speed Wind Dir Waves Ship Positions

Costa Sul

Last reported at 2018-May-22 09:05 UTC. Time now 2018-May-22 10:14 UTC.
Position N 36°48' W 008°30'.

Length 24 m.

Type: Fishing. MMSI: 263402580.

Date/timePositionNaut miles runAvg speedWind from/ knotsBaromVisibWave heightAir tempDewpointWater temp
2018-May-22 09:05N 36°48' W 008°30'0 1.2
2018-May-22 08:58N 36°48' W 008°30'3 0.1
2018-May-20 16:08N 36°48' W 008°26'0 2.9
2018-May-20 15:58N 36°48' W 008°26'2 2.9
2018-May-20 15:25N 36°47' W 008°24'1 2.9
2018-May-20 15:00N 36°47' W 008°22'1 2.8
2018-May-20 14:30N 36°47' W 008°20'2 3.3
2018-May-20 14:01N 36°47' W 008°18'2 2.1
2018-May-20 12:48N 36°47' W 008°21'3 3.0
2018-May-20 11:55N 36°48' W 008°25'21 0.9
2018-May-19 11:52N 36°47' W 008°51'17 0.3
2018-May-17 10:42N 36°48' W 008°30'1 2.8
2018-May-17 10:27N 36°48' W 008°29'  
2018-May-13 07:46N 37°02' W 008°34'3 9.3
2018-May-13 07:24N 37°05' W 008°32'3 7.7
2018-May-13 07:00N 37°08' W 008°32'0 0.0
2018-May-13 06:30N 37°08' W 008°32'0 0.0
2018-May-13 06:00N 37°08' W 008°32'0 0.0
2018-May-13 05:30N 37°08' W 008°32'0 0.1
2018-May-13 05:00N 37°08' W 008°32'4 6.9
2018-May-13 04:29N 37°04' W 008°31'4 8.1
2018-May-13 04:00N 37°00' W 008°31'  
Track history (hours):
 
Tides and Currents Weather Stations Pressure Air Temp Water Temp Dewpoint Dewpoint Depression Visibility Wind Speed Wind Dir Waves Ship Positions

Costa Sul

Last reported at 2018-May-22 09:05 UTC. Time now 2018-May-22 10:14 UTC.
Position N 36°48' W 008°30'.

Length 24 m.

Type: Fishing. MMSI: 263402580.

Date/timePositionNaut miles runAvg speedWind from/ knotsBaromVisibWave heightAir tempDewpointWater temp
2018-May-22 09:05N 36°48' W 008°30'0 1.2
2018-May-22 08:58N 36°48' W 008°30'3 0.1
2018-May-20 16:08N 36°48' W 008°26'0 2.9
2018-May-20 15:58N 36°48' W 008°26'2 2.9
2018-May-20 15:25N 36°47' W 008°24'1 2.9
2018-May-20 15:00N 36°47' W 008°22'1 2.8
2018-May-20 14:30N 36°47' W 008°20'2 3.3
2018-May-20 14:01N 36°47' W 008°18'2 2.1
2018-May-20 12:48N 36°47' W 008°21'3 3.0
2018-May-20 11:55N 36°48' W 008°25'21 0.9
2018-May-19 11:52N 36°47' W 008°51'17 0.3
2018-May-17 10:42N 36°48' W 008°30'1 2.8
2018-May-17 10:27N 36°48' W 008°29'  
2018-May-13 07:46N 37°02' W 008°34'3 9.3
2018-May-13 07:24N 37°05' W 008°32'3 7.7
2018-May-13 07:00N 37°08' W 008°32'0 0.0
2018-May-13 06:30N 37°08' W 008°32'0 0.0
2018-May-13 06:00N 37°08' W 008°32'0 0.0
2018-May-13 05:30N 37°08' W 008°32'0 0.1
2018-May-13 05:00N 37°08' W 008°32'4 6.9
2018-May-13 04:29N 37°04' W 008°31'4 8.1
2018-May-13 04:00N 37°00' W 008°31'  

Dump ship's entire track history